sensor_id;sensor_type;location;lat;lon;timestamp;temperature;humidity
5802;DHT22;2927;49.366;8.530;2023-07-22T00:02:02;17.90;1.00
5802;DHT22;2927;49.366;8.530;2023-07-22T00:04:28;17.90;1.00
5802;DHT22;2927;49.366;8.530;2023-07-22T00:06:54;17.90;1.00
5802;DHT22;2927;49.366;8.530;2023-07-22T00:09:19;17.90;1.00
5802;DHT22;2927;49.366;8.530;2023-07-22T00:11:45;17.90;1.00
5802;DHT22;2927;49.366;8.530;2023-07-22T00:14:10;17.90;1.00
5802;DHT22;2927;49.366;8.530;2023-07-22T00:16:36;17.90;1.00
5802;DHT22;2927;49.366;8.530;2023-07-22T00:19:01;17.90;1.00
5802;DHT22;2927;49.366;8.530;2023-07-22T00:21:27;17.90;1.00
5802;DHT22;2927;49.366;8.530;2023-07-22T00:23:54;17.90;1.00
5802;DHT22;2927;49.366;8.530;2023-07-22T00:26:20;17.90;1.00
5802;DHT22;2927;49.366;8.530;2023-07-22T00:28:45;17.90;1.00
5802;DHT22;2927;49.366;8.530;2023-07-22T00:31:11;17.90;99.90
5802;DHT22;2927;49.366;8.530;2023-07-22T00:33:36;17.90;99.90
5802;DHT22;2927;49.366;8.530;2023-07-22T00:36:02;17.90;14.80
5802;DHT22;2927;49.366;8.530;2023-07-22T00:38:28;17.90;1.00
5802;DHT22;2927;49.366;8.530;2023-07-22T00:40:54;18.00;1.00
5802;DHT22;2927;49.366;8.530;2023-07-22T00:43:19;18.10;1.00
5802;DHT22;2927;49.366;8.530;2023-07-22T00:45:45;18.10;1.00
5802;DHT22;2927;49.366;8.530;2023-07-22T00:48:11;18.00;1.00
5802;DHT22;2927;49.366;8.530;2023-07-22T00:50:39;17.90;1.00
5802;DHT22;2927;49.366;8.530;2023-07-22T00:53:04;17.90;1.00
5802;DHT22;2927;49.366;8.530;2023-07-22T00:55:33;17.80;1.00
5802;DHT22;2927;49.366;8.530;2023-07-22T00:58:00;17.80;1.00
5802;DHT22;2927;49.366;8.530;2023-07-22T01:00:25;17.80;1.00
5802;DHT22;2927;49.366;8.530;2023-07-22T01:02:51;17.70;1.00
5802;DHT22;2927;49.366;8.530;2023-07-22T01:05:16;17.70;1.00
5802;DHT22;2927;49.366;8.530;2023-07-22T01:07:42;17.50;1.00
5802;DHT22;2927;49.366;8.530;2023-07-22T01:10:09;17.40;1.00
5802;DHT22;2927;49.366;8.530;2023-07-22T01:12:35;17.40;1.00
5802;DHT22;2927;49.366;8.530;2023-07-22T01:15:00;17.30;1.00
5802;DHT22;2927;49.366;8.530;2023-07-22T01:17:28;17.30;1.00
5802;DHT22;2927;49.366;8.530;2023-07-22T01:19:55;17.30;1.00
5802;DHT22;2927;49.366;8.530;2023-07-22T01:22:22;17.40;1.00
5802;DHT22;2927;49.366;8.530;2023-07-22T01:24:48;17.40;1.00
5802;DHT22;2927;49.366;8.530;2023-07-22T01:27:14;17.40;1.00
5802;DHT22;2927;49.366;8.530;2023-07-22T01:29:40;17.40;1.00
5802;DHT22;2927;49.366;8.530;2023-07-22T01:32:05;17.40;1.00
5802;DHT22;2927;49.366;8.530;2023-07-22T01:34:31;17.40;1.00
5802;DHT22;2927;49.366;8.530;2023-07-22T01:36:57;17.30;1.00
5802;DHT22;2927;49.366;8.530;2023-07-22T01:39:23;17.30;1.00
5802;DHT22;2927;49.366;8.530;2023-07-22T01:41:50;17.30;1.00
5802;DHT22;2927;49.366;8.530;2023-07-22T01:44:16;17.30;1.00
5802;DHT22;2927;49.366;8.530;2023-07-22T01:46:42;17.20;1.00
5802;DHT22;2927;49.366;8.530;2023-07-22T01:49:11;17.20;1.00
5802;DHT22;2927;49.366;8.530;2023-07-22T01:51:40;17.30;1.00
5802;DHT22;2927;49.366;8.530;2023-07-22T01:54:06;17.20;1.00
5802;DHT22;2927;49.366;8.530;2023-07-22T01:56:32;17.20;1.00
5802;DHT22;2927;49.366;8.530;2023-07-22T01:58:58;17.20;99.90
5802;DHT22;2927;49.366;8.530;2023-07-22T02:01:23;17.10;99.90
5802;DHT22;2927;49.366;8.530;2023-07-22T02:03:49;17.00;99.90
5802;DHT22;2927;49.366;8.530;2023-07-22T02:06:15;17.00;1.00
5802;DHT22;2927;49.366;8.530;2023-07-22T02:08:41;17.00;1.00
5802;DHT22;2927;49.366;8.530;2023-07-22T02:11:07;16.90;1.00
5802;DHT22;2927;49.366;8.530;2023-07-22T02:13:35;17.00;1.00
5802;DHT22;2927;49.366;8.530;2023-07-22T02:16:01;16.90;1.00
5802;DHT22;2927;49.366;8.530;2023-07-22T02:18:27;16.90;1.00
5802;DHT22;2927;49.366;8.530;2023-07-22T02:20:53;16.90;1.00
5802;DHT22;2927;49.366;8.530;2023-07-22T02:23:19;16.90;1.00
5802;DHT22;2927;49.366;8.530;2023-07-22T02:25:52;16.90;1.00
5802;DHT22;2927;49.366;8.530;2023-07-22T02:28:18;16.90;28.30
5802;DHT22;2927;49.366;8.530;2023-07-22T02:30:52;16.80;77.10
5802;DHT22;2927;49.366;8.530;2023-07-22T02:33:18;16.90;99.90
5802;DHT22;2927;49.366;8.530;2023-07-22T02:35:45;16.90;99.90
5802;DHT22;2927;49.366;8.530;2023-07-22T02:38:10;16.90;99.90
5802;DHT22;2927;49.366;8.530;2023-07-22T02:40:37;16.90;99.90
5802;DHT22;2927;49.366;8.530;2023-07-22T02:43:02;16.90;99.90
5802;DHT22;2927;49.366;8.530;2023-07-22T02:45:28;17.00;99.90
5802;DHT22;2927;49.366;8.530;2023-07-22T02:47:54;17.20;1.00
5802;DHT22;2927;49.366;8.530;2023-07-22T02:50:20;17.20;99.90
5802;DHT22;2927;49.366;8.530;2023-07-22T02:52:45;17.10;1.00
5802;DHT22;2927;49.366;8.530;2023-07-22T02:55:16;17.10;1.00
5802;DHT22;2927;49.366;8.530;2023-07-22T02:57:44;16.90;1.00
5802;DHT22;2927;49.366;8.530;2023-07-22T03:00:12;16.80;99.90
5802;DHT22;2927;49.366;8.530;2023-07-22T03:02:39;16.80;1.00
5802;DHT22;2927;49.366;8.530;2023-07-22T03:05:06;16.70;12.70
5802;DHT22;2927;49.366;8.530;2023-07-22T03:07:38;16.70;1.00
5802;DHT22;2927;49.366;8.530;2023-07-22T03:10:07;16.70;1.00
5802;DHT22;2927;49.366;8.530;2023-07-22T03:12:34;16.70;1.00
5802;DHT22;2927;49.366;8.530;2023-07-22T03:15:00;16.70;1.00
5802;DHT22;2927;49.366;8.530;2023-07-22T03:17:26;16.60;1.00
5802;DHT22;2927;49.366;8.530;2023-07-22T03:19:51;16.60;99.90
5802;DHT22;2927;49.366;8.530;2023-07-22T03:22:17;16.60;1.00
5802;DHT22;2927;49.366;8.530;2023-07-22T03:24:44;16.60;1.00
5802;DHT22;2927;49.366;8.530;2023-07-22T03:27:10;16.60;1.00
5802;DHT22;2927;49.366;8.530;2023-07-22T03:29:36;16.60;91.10
5802;DHT22;2927;49.366;8.530;2023-07-22T03:32:02;16.60;1.00
5802;DHT22;2927;49.366;8.530;2023-07-22T03:34:28;16.60;1.00
5802;DHT22;2927;49.366;8.530;2023-07-22T03:36:53;16.50;1.00
5802;DHT22;2927;49.366;8.530;2023-07-22T03:39:19;16.50;1.00
5802;DHT22;2927;49.366;8.530;2023-07-22T03:41:45;16.50;1.00
5802;DHT22;2927;49.366;8.530;2023-07-22T03:44:11;16.40;1.00
5802;DHT22;2927;49.366;8.530;2023-07-22T03:46:38;16.40;1.00
5802;DHT22;2927;49.366;8.530;2023-07-22T03:49:04;16.40;1.00
5802;DHT22;2927;49.366;8.530;2023-07-22T03:51:30;16.30;1.00
5802;DHT22;2927;49.366;8.530;2023-07-22T03:53:56;16.20;1.00
5802;DHT22;2927;49.366;8.530;2023-07-22T03:56:21;16.20;1.00
5802;DHT22;2927;49.366;8.530;2023-07-22T03:58:49;16.20;1.00
5802;DHT22;2927;49.366;8.530;2023-07-22T04:01:15;16.30;1.00
5802;DHT22;2927;49.366;8.530;2023-07-22T04:03:40;16.30;1.00
5802;DHT22;2927;49.366;8.530;2023-07-22T04:06:06;16.30;1.00
5802;DHT22;2927;49.366;8.530;2023-07-22T04:08:31;16.30;1.00
5802;DHT22;2927;49.366;8.530;2023-07-22T04:10:57;16.30;30.00
5802;DHT22;2927;49.366;8.530;2023-07-22T04:13:25;16.30;1.00
5802;DHT22;2927;49.366;8.530;2023-07-22T04:15:50;16.30;1.00
5802;DHT22;2927;49.366;8.530;2023-07-22T04:18:17;16.20;1.00
5802;DHT22;2927;49.366;8.530;2023-07-22T04:20:43;16.30;32.80
5802;DHT22;2927;49.366;8.530;2023-07-22T04:23:09;16.20;1.00
5802;DHT22;2927;49.366;8.530;2023-07-22T04:25:45;16.20;26.20
5802;DHT22;2927;49.366;8.530;2023-07-22T04:28:10;16.20;37.80
5802;DHT22;2927;49.366;8.530;2023-07-22T04:30:37;16.20;18.80
5802;DHT22;2927;49.366;8.530;2023-07-22T04:33:03;16.30;1.00
5802;DHT22;2927;49.366;8.530;2023-07-22T04:35:33;16.20;1.00
5802;DHT22;2927;49.366;8.530;2023-07-22T04:37:59;16.20;1.00
5802;DHT22;2927;49.366;8.530;2023-07-22T04:40:25;16.20;1.00
5802;DHT22;2927;49.366;8.530;2023-07-22T04:42:51;16.10;1.00
5802;DHT22;2927;49.366;8.530;2023-07-22T04:45:17;16.10;1.00
5802;DHT22;2927;49.366;8.530;2023-07-22T04:47:43;16.10;1.00
5802;DHT22;2927;49.366;8.530;2023-07-22T04:50:12;16.20;1.00
5802;DHT22;2927;49.366;8.530;2023-07-22T04:52:38;16.20;1.00
5802;DHT22;2927;49.366;8.530;2023-07-22T04:55:04;16.20;1.00
5802;DHT22;2927;49.366;8.530;2023-07-22T04:57:41;16.20;1.00
5802;DHT22;2927;49.366;8.530;2023-07-22T05:00:08;16.20;1.00
5802;DHT22;2927;49.366;8.530;2023-07-22T05:02:42;16.20;1.00
5802;DHT22;2927;49.366;8.530;2023-07-22T05:05:11;16.20;1.00
5802;DHT22;2927;49.366;8.530;2023-07-22T05:07:37;16.10;1.00
5802;DHT22;2927;49.366;8.530;2023-07-22T05:10:02;16.20;1.00
5802;DHT22;2927;49.366;8.530;2023-07-22T05:12:28;16.20;1.00
5802;DHT22;2927;49.366;8.530;2023-07-22T05:14:53;16.20;1.00
5802;DHT22;2927;49.366;8.530;2023-07-22T05:17:19;16.20;1.00
5802;DHT22;2927;49.366;8.530;2023-07-22T05:19:45;16.20;1.00
5802;DHT22;2927;49.366;8.530;2023-07-22T05:22:10;16.20;1.00
5802;DHT22;2927;49.366;8.530;2023-07-22T05:24:36;16.20;1.00
5802;DHT22;2927;49.366;8.530;2023-07-22T05:27:01;16.20;1.00
5802;DHT22;2927;49.366;8.530;2023-07-22T05:29:27;16.30;1.00
5802;DHT22;2927;49.366;8.530;2023-07-22T05:31:52;16.30;1.00
5802;DHT22;2927;49.366;8.530;2023-07-22T05:34:18;16.30;1.00
5802;DHT22;2927;49.366;8.530;2023-07-22T05:36:43;16.30;1.00
5802;DHT22;2927;49.366;8.530;2023-07-22T05:39:09;16.30;1.00
5802;DHT22;2927;49.366;8.530;2023-07-22T05:41:35;16.20;1.00
5802;DHT22;2927;49.366;8.530;2023-07-22T05:44:02;16.30;1.00
5802;DHT22;2927;49.366;8.530;2023-07-22T05:46:28;16.20;1.00
5802;DHT22;2927;49.366;8.530;2023-07-22T05:48:54;16.30;25.80
5802;DHT22;2927;49.366;8.530;2023-07-22T05:51:19;16.20;28.90
5802;DHT22;2927;49.366;8.530;2023-07-22T05:53:45;16.20;25.80
5802;DHT22;2927;49.366;8.530;2023-07-22T05:56:10;16.20;36.20
5802;DHT22;2927;49.366;8.530;2023-07-22T05:58:36;16.30;1.00
5802;DHT22;2927;49.366;8.530;2023-07-22T06:01:02;16.30;1.00
5802;DHT22;2927;49.366;8.530;2023-07-22T06:03:28;16.40;1.00
5802;DHT22;2927;49.366;8.530;2023-07-22T06:05:53;16.40;1.00
5802;DHT22;2927;49.366;8.530;2023-07-22T06:08:19;16.50;1.00
5802;DHT22;2927;49.366;8.530;2023-07-22T06:10:45;16.60;1.00
5802;DHT22;2927;49.366;8.530;2023-07-22T06:13:10;16.70;1.00
5802;DHT22;2927;49.366;8.530;2023-07-22T06:15:36;16.80;99.90
5802;DHT22;2927;49.366;8.530;2023-07-22T06:18:02;16.90;1.00
5802;DHT22;2927;49.366;8.530;2023-07-22T06:20:29;17.00;1.00
5802;DHT22;2927;49.366;8.530;2023-07-22T06:22:55;17.10;1.00
5802;DHT22;2927;49.366;8.530;2023-07-22T06:25:21;17.20;72.70
5802;DHT22;2927;49.366;8.530;2023-07-22T06:27:46;17.30;1.00
5802;DHT22;2927;49.366;8.530;2023-07-22T06:30:12;17.30;99.90
5802;DHT22;2927;49.366;8.530;2023-07-22T06:32:38;17.30;1.00
5802;DHT22;2927;49.366;8.530;2023-07-22T06:35:05;17.30;99.90
5802;DHT22;2927;49.366;8.530;2023-07-22T06:37:30;17.30;1.00
5802;DHT22;2927;49.366;8.530;2023-07-22T06:39:56;17.30;1.00
5802;DHT22;2927;49.366;8.530;2023-07-22T06:44:49;17.30;99.90
5802;DHT22;2927;49.366;8.530;2023-07-22T06:47:15;17.40;1.00
5802;DHT22;2927;49.366;8.530;2023-07-22T06:49:41;17.50;99.90
5802;DHT22;2927;49.366;8.530;2023-07-22T06:52:07;17.50;1.00
5802;DHT22;2927;49.366;8.530;2023-07-22T06:54:33;17.80;1.00
5802;DHT22;2927;49.366;8.530;2023-07-22T06:56:59;18.30;99.90
5802;DHT22;2927;49.366;8.530;2023-07-22T06:59:25;18.70;1.00
5802;DHT22;2927;49.366;8.530;2023-07-22T07:01:51;18.80;1.00
5802;DHT22;2927;49.366;8.530;2023-07-22T07:04:17;19.10;1.00
5802;DHT22;2927;49.366;8.530;2023-07-22T07:06:42;19.80;99.90
5802;DHT22;2927;49.366;8.530;2023-07-22T07:09:08;20.30;1.00
5802;DHT22;2927;49.366;8.530;2023-07-22T07:11:33;20.10;99.90
5802;DHT22;2927;49.366;8.530;2023-07-22T07:13:59;19.70;1.00
5802;DHT22;2927;49.366;8.530;2023-07-22T07:16:27;19.50;1.00
5802;DHT22;2927;49.366;8.530;2023-07-22T07:18:53;19.50;1.00
5802;DHT22;2927;49.366;8.530;2023-07-22T07:21:20;19.50;1.00
5802;DHT22;2927;49.366;8.530;2023-07-22T07:23:45;19.50;1.00
5802;DHT22;2927;49.366;8.530;2023-07-22T07:26:11;19.50;1.00
5802;DHT22;2927;49.366;8.530;2023-07-22T07:28:37;19.40;1.00
5802;DHT22;2927;49.366;8.530;2023-07-22T07:31:02;19.40;1.00
5802;DHT22;2927;49.366;8.530;2023-07-22T07:33:28;19.40;1.00
5802;DHT22;2927;49.366;8.530;2023-07-22T07:35:54;19.50;1.00
5802;DHT22;2927;49.366;8.530;2023-07-22T07:38:20;19.80;99.90
5802;DHT22;2927;49.366;8.530;2023-07-22T07:40:45;19.90;99.90
5802;DHT22;2927;49.366;8.530;2023-07-22T07:43:11;19.90;99.90
5802;DHT22;2927;49.366;8.530;2023-07-22T07:45:39;19.80;27.40
5802;DHT22;2927;49.366;8.530;2023-07-22T07:48:05;19.70;99.90
5802;DHT22;2927;49.366;8.530;2023-07-22T07:50:32;19.70;99.90
5802;DHT22;2927;49.366;8.530;2023-07-22T07:52:57;19.70;90.30
5802;DHT22;2927;49.366;8.530;2023-07-22T07:55:24;19.80;1.00
5802;DHT22;2927;49.366;8.530;2023-07-22T07:57:50;19.60;1.00
5802;DHT22;2927;49.366;8.530;2023-07-22T08:00:16;19.50;59.40
5802;DHT22;2927;49.366;8.530;2023-07-22T08:02:42;19.60;99.90
5802;DHT22;2927;49.366;8.530;2023-07-22T08:05:07;19.70;1.00
5802;DHT22;2927;49.366;8.530;2023-07-22T08:07:33;19.80;50.10
5802;DHT22;2927;49.366;8.530;2023-07-22T08:09:59;19.90;1.00
5802;DHT22;2927;49.366;8.530;2023-07-22T08:12:24;19.90;1.00
5802;DHT22;2927;49.366;8.530;2023-07-22T08:14:53;19.90;1.00
5802;DHT22;2927;49.366;8.530;2023-07-22T08:17:18;19.90;1.00
5802;DHT22;2927;49.366;8.530;2023-07-22T08:19:44;19.90;1.00
5802;DHT22;2927;49.366;8.530;2023-07-22T08:22:09;20.00;1.00
5802;DHT22;2927;49.366;8.530;2023-07-22T08:24:35;20.20;1.00
5802;DHT22;2927;49.366;8.530;2023-07-22T08:27:00;20.40;1.00
5802;DHT22;2927;49.366;8.530;2023-07-22T08:29:26;20.50;1.00
5802;DHT22;2927;49.366;8.530;2023-07-22T08:31:51;20.60;1.00
5802;DHT22;2927;49.366;8.530;2023-07-22T08:34:17;20.70;1.00
5802;DHT22;2927;49.366;8.530;2023-07-22T08:36:42;20.90;1.00
5802;DHT22;2927;49.366;8.530;2023-07-22T08:39:09;21.60;1.00
5802;DHT22;2927;49.366;8.530;2023-07-22T08:41:35;22.50;99.90
5802;DHT22;2927;49.366;8.530;2023-07-22T08:44:02;23.90;99.90
5802;DHT22;2927;49.366;8.530;2023-07-22T08:46:29;24.60;23.10
5802;DHT22;2927;49.366;8.530;2023-07-22T08:48:59;24.80;1.00
5802;DHT22;2927;49.366;8.530;2023-07-22T08:51:26;24.90;1.00
5802;DHT22;2927;49.366;8.530;2023-07-22T08:53:54;24.70;1.00
5802;DHT22;2927;49.366;8.530;2023-07-22T08:56:23;25.80;1.00
5802;DHT22;2927;49.366;8.530;2023-07-22T08:58:50;26.40;1.00
5802;DHT22;2927;49.366;8.530;2023-07-22T09:01:16;26.70;1.00
5802;DHT22;2927;49.366;8.530;2023-07-22T09:03:42;28.00;1.00
5802;DHT22;2927;49.366;8.530;2023-07-22T09:06:08;28.70;1.00
5802;DHT22;2927;49.366;8.530;2023-07-22T09:08:33;29.30;1.00
5802;DHT22;2927;49.366;8.530;2023-07-22T09:11:01;29.80;1.00
5802;DHT22;2927;49.366;8.530;2023-07-22T09:13:27;30.70;1.00
5802;DHT22;2927;49.366;8.530;2023-07-22T09:15:53;31.30;1.00
5802;DHT22;2927;49.366;8.530;2023-07-22T09:18:22;31.20;1.00
5802;DHT22;2927;49.366;8.530;2023-07-22T09:20:47;30.40;1.00
5802;DHT22;2927;49.366;8.530;2023-07-22T09:23:13;30.70;1.00
5802;DHT22;2927;49.366;8.530;2023-07-22T09:25:40;32.00;1.00
5802;DHT22;2927;49.366;8.530;2023-07-22T09:28:05;31.90;1.00
5802;DHT22;2927;49.366;8.530;2023-07-22T09:30:35;31.60;1.00
5802;DHT22;2927;49.366;8.530;2023-07-22T09:33:05;31.10;1.00
5802;DHT22;2927;49.366;8.530;2023-07-22T09:35:46;30.20;1.00
5802;DHT22;2927;49.366;8.530;2023-07-22T09:38:11;29.50;1.00
5802;DHT22;2927;49.366;8.530;2023-07-22T09:40:40;29.10;1.00
5802;DHT22;2927;49.366;8.530;2023-07-22T09:43:05;30.20;1.00
5802;DHT22;2927;49.366;8.530;2023-07-22T09:45:31;31.30;1.00
5802;DHT22;2927;49.366;8.530;2023-07-22T09:47:58;31.40;1.00
5802;DHT22;2927;49.366;8.530;2023-07-22T09:50:25;30.20;1.00
5802;DHT22;2927;49.366;8.530;2023-07-22T09:52:55;29.30;1.00
5802;DHT22;2927;49.366;8.530;2023-07-22T09:55:23;29.20;1.00
5802;DHT22;2927;49.366;8.530;2023-07-22T09:58:04;30.20;1.00
5802;DHT22;2927;49.366;8.530;2023-07-22T10:00:36;29.70;1.00
5802;DHT22;2927;49.366;8.530;2023-07-22T10:03:03;29.90;1.00
5802;DHT22;2927;49.366;8.530;2023-07-22T10:05:34;31.00;1.00
5802;DHT22;2927;49.366;8.530;2023-07-22T10:08:01;31.50;1.00
5802;DHT22;2927;49.366;8.530;2023-07-22T10:10:54;31.80;1.00
5802;DHT22;2927;49.366;8.530;2023-07-22T10:13:21;32.10;1.00
5802;DHT22;2927;49.366;8.530;2023-07-22T10:15:47;32.80;1.00
5802;DHT22;2927;49.366;8.530;2023-07-22T10:18:13;32.40;1.00
5802;DHT22;2927;49.366;8.530;2023-07-22T10:20:39;31.70;1.00
5802;DHT22;2927;49.366;8.530;2023-07-22T10:23:07;32.20;1.00
5802;DHT22;2927;49.366;8.530;2023-07-22T10:25:34;32.40;1.00
5802;DHT22;2927;49.366;8.530;2023-07-22T10:28:00;32.10;1.00
5802;DHT22;2927;49.366;8.530;2023-07-22T10:30:26;32.40;1.00
5802;DHT22;2927;49.366;8.530;2023-07-22T10:32:52;32.00;1.00
5802;DHT22;2927;49.366;8.530;2023-07-22T10:37:56;31.50;1.00
5802;DHT22;2927;49.366;8.530;2023-07-22T10:40:31;31.30;1.00
5802;DHT22;2927;49.366;8.530;2023-07-22T10:43:04;31.30;1.00
5802;DHT22;2927;49.366;8.530;2023-07-22T10:45:42;31.30;1.00
5802;DHT22;2927;49.366;8.530;2023-07-22T10:48:12;31.00;1.00
5802;DHT22;2927;49.366;8.530;2023-07-22T10:50:51;30.20;1.00
5802;DHT22;2927;49.366;8.530;2023-07-22T11:04:23;28.50;1.00
5802;DHT22;2927;49.366;8.530;2023-07-22T11:07:05;28.20;1.00
5802;DHT22;2927;49.366;8.530;2023-07-22T11:09:33;27.90;1.00
5802;DHT22;2927;49.366;8.530;2023-07-22T11:12:20;27.70;1.00
5802;DHT22;2927;49.366;8.530;2023-07-22T11:15:03;27.60;1.00
5802;DHT22;2927;49.366;8.530;2023-07-22T11:17:31;27.60;1.00
5802;DHT22;2927;49.366;8.530;2023-07-22T11:19:58;27.80;1.00
5802;DHT22;2927;49.366;8.530;2023-07-22T11:22:24;27.80;1.00
5802;DHT22;2927;49.366;8.530;2023-07-22T11:24:50;27.90;1.00
5802;DHT22;2927;49.366;8.530;2023-07-22T11:27:15;28.30;1.00
5802;DHT22;2927;49.366;8.530;2023-07-22T11:29:41;28.50;1.00
5802;DHT22;2927;49.366;8.530;2023-07-22T11:32:06;28.30;1.00
5802;DHT22;2927;49.366;8.530;2023-07-22T11:34:40;28.40;1.00
5802;DHT22;2927;49.366;8.530;2023-07-22T11:37:06;28.00;1.00
5802;DHT22;2927;49.366;8.530;2023-07-22T11:39:31;28.10;1.00
5802;DHT22;2927;49.366;8.530;2023-07-22T11:42:00;28.50;1.00
5802;DHT22;2927;49.366;8.530;2023-07-22T11:44:27;28.60;1.00
5802;DHT22;2927;49.366;8.530;2023-07-22T11:47:01;28.40;1.00
5802;DHT22;2927;49.366;8.530;2023-07-22T11:49:33;28.70;1.00
5802;DHT22;2927;49.366;8.530;2023-07-22T11:52:10;28.30;1.00
5802;DHT22;2927;49.366;8.530;2023-07-22T11:54:39;28.30;1.00
5802;DHT22;2927;49.366;8.530;2023-07-22T11:57:14;28.40;1.00
5802;DHT22;2927;49.366;8.530;2023-07-22T12:02:17;27.90;1.00
5802;DHT22;2927;49.366;8.530;2023-07-22T12:04:44;28.30;1.00
5802;DHT22;2927;49.366;8.530;2023-07-22T12:07:32;28.80;1.00
5802;DHT22;2927;49.366;8.530;2023-07-22T12:10:00;28.90;1.00
5802;DHT22;2927;49.366;8.530;2023-07-22T12:12:36;28.70;1.00
5802;DHT22;2927;49.366;8.530;2023-07-22T12:15:04;28.80;1.00
5802;DHT22;2927;49.366;8.530;2023-07-22T12:17:30;28.30;1.00
5802;DHT22;2927;49.366;8.530;2023-07-22T12:19:55;28.30;1.00
5802;DHT22;2927;49.366;8.530;2023-07-22T12:22:21;28.20;1.00
5802;DHT22;2927;49.366;8.530;2023-07-22T12:24:49;28.30;1.00
5802;DHT22;2927;49.366;8.530;2023-07-22T12:27:15;28.70;1.00
5802;DHT22;2927;49.366;8.530;2023-07-22T12:29:41;28.60;1.00
5802;DHT22;2927;49.366;8.530;2023-07-22T12:32:07;28.70;1.00
5802;DHT22;2927;49.366;8.530;2023-07-22T12:34:33;28.50;1.00
5802;DHT22;2927;49.366;8.530;2023-07-22T12:36:59;28.30;1.00
5802;DHT22;2927;49.366;8.530;2023-07-22T12:39:25;28.20;1.00
5802;DHT22;2927;49.366;8.530;2023-07-22T12:41:50;28.50;1.00
5802;DHT22;2927;49.366;8.530;2023-07-22T12:44:16;28.70;1.00
5802;DHT22;2927;49.366;8.530;2023-07-22T12:46:41;29.10;1.00
5802;DHT22;2927;49.366;8.530;2023-07-22T12:49:08;29.30;1.00
5802;DHT22;2927;49.366;8.530;2023-07-22T12:51:33;29.20;1.00
5802;DHT22;2927;49.366;8.530;2023-07-22T12:53:59;28.90;1.00
5802;DHT22;2927;49.366;8.530;2023-07-22T12:56:25;29.00;1.00
5802;DHT22;2927;49.366;8.530;2023-07-22T12:58:51;29.30;1.00
5802;DHT22;2927;49.366;8.530;2023-07-22T13:01:16;29.50;1.00
5802;DHT22;2927;49.366;8.530;2023-07-22T13:03:42;29.80;1.00
5802;DHT22;2927;49.366;8.530;2023-07-22T13:06:08;29.70;1.00
5802;DHT22;2927;49.366;8.530;2023-07-22T13:08:33;29.40;1.00
5802;DHT22;2927;49.366;8.530;2023-07-22T13:10:59;29.40;1.00
5802;DHT22;2927;49.366;8.530;2023-07-22T13:13:24;29.10;1.00
5802;DHT22;2927;49.366;8.530;2023-07-22T13:15:50;29.10;1.00
5802;DHT22;2927;49.366;8.530;2023-07-22T13:18:15;29.30;1.00
5802;DHT22;2927;49.366;8.530;2023-07-22T13:20:42;29.30;1.00
5802;DHT22;2927;49.366;8.530;2023-07-22T13:23:07;29.40;1.00
5802;DHT22;2927;49.366;8.530;2023-07-22T13:25:33;29.50;1.00
5802;DHT22;2927;49.366;8.530;2023-07-22T13:27:58;29.70;1.00
5802;DHT22;2927;49.366;8.530;2023-07-22T13:30:24;29.80;1.00
5802;DHT22;2927;49.366;8.530;2023-07-22T13:32:49;30.00;1.00
5802;DHT22;2927;49.366;8.530;2023-07-22T13:35:15;29.90;1.00
5802;DHT22;2927;49.366;8.530;2023-07-22T13:37:41;29.70;1.00
5802;DHT22;2927;49.366;8.530;2023-07-22T13:40:07;29.50;1.00
5802;DHT22;2927;49.366;8.530;2023-07-22T13:42:36;29.50;1.00
5802;DHT22;2927;49.366;8.530;2023-07-22T13:45:02;29.10;1.00
5802;DHT22;2927;49.366;8.530;2023-07-22T13:47:27;29.00;1.00
5802;DHT22;2927;49.366;8.530;2023-07-22T13:49:53;29.10;1.00
5802;DHT22;2927;49.366;8.530;2023-07-22T13:52:18;29.10;1.00
5802;DHT22;2927;49.366;8.530;2023-07-22T13:54:44;29.00;1.00
5802;DHT22;2927;49.366;8.530;2023-07-22T13:57:11;28.90;1.00
5802;DHT22;2927;49.366;8.530;2023-07-22T13:59:37;29.10;1.00
5802;DHT22;2927;49.366;8.530;2023-07-22T14:02:03;29.30;1.00
5802;DHT22;2927;49.366;8.530;2023-07-22T14:04:29;29.30;1.00
5802;DHT22;2927;49.366;8.530;2023-07-22T14:06:54;29.20;1.00
5802;DHT22;2927;49.366;8.530;2023-07-22T14:09:20;29.30;1.00
5802;DHT22;2927;49.366;8.530;2023-07-22T14:11:45;29.50;1.00
5802;DHT22;2927;49.366;8.530;2023-07-22T14:14:11;29.60;1.00
5802;DHT22;2927;49.366;8.530;2023-07-22T14:16:36;29.50;1.00
5802;DHT22;2927;49.366;8.530;2023-07-22T14:19:02;29.30;1.00
5802;DHT22;2927;49.366;8.530;2023-07-22T14:21:27;29.40;1.00
5802;DHT22;2927;49.366;8.530;2023-07-22T14:23:53;29.60;1.00
5802;DHT22;2927;49.366;8.530;2023-07-22T14:26:20;29.60;1.00
5802;DHT22;2927;49.366;8.530;2023-07-22T14:28:45;29.40;1.00
5802;DHT22;2927;49.366;8.530;2023-07-22T14:31:11;29.50;1.00
5802;DHT22;2927;49.366;8.530;2023-07-22T14:33:37;29.40;1.00
5802;DHT22;2927;49.366;8.530;2023-07-22T14:36:03;29.30;1.00
5802;DHT22;2927;49.366;8.530;2023-07-22T14:38:29;29.40;1.00
5802;DHT22;2927;49.366;8.530;2023-07-22T14:40:54;29.40;1.00
5802;DHT22;2927;49.366;8.530;2023-07-22T14:43:20;29.30;1.00
5802;DHT22;2927;49.366;8.530;2023-07-22T14:45:45;29.30;1.00
5802;DHT22;2927;49.366;8.530;2023-07-22T14:48:11;29.30;1.00
5802;DHT22;2927;49.366;8.530;2023-07-22T14:50:38;29.50;1.00
5802;DHT22;2927;49.366;8.530;2023-07-22T14:53:03;29.60;1.00
5802;DHT22;2927;49.366;8.530;2023-07-22T14:55:29;29.30;1.00
5802;DHT22;2927;49.366;8.530;2023-07-22T14:57:55;29.10;1.00
5802;DHT22;2927;49.366;8.530;2023-07-22T15:00:20;29.10;1.00
5802;DHT22;2927;49.366;8.530;2023-07-22T15:02:47;29.20;1.00
5802;DHT22;2927;49.366;8.530;2023-07-22T15:05:12;29.30;1.00
5802;DHT22;2927;49.366;8.530;2023-07-22T15:07:38;29.40;1.00
5802;DHT22;2927;49.366;8.530;2023-07-22T15:10:05;29.30;1.00
5802;DHT22;2927;49.366;8.530;2023-07-22T15:12:32;29.30;1.00
5802;DHT22;2927;49.366;8.530;2023-07-22T15:14:58;29.20;1.00
5802;DHT22;2927;49.366;8.530;2023-07-22T15:17:26;29.20;1.00
5802;DHT22;2927;49.366;8.530;2023-07-22T15:19:51;29.10;1.00
5802;DHT22;2927;49.366;8.530;2023-07-22T15:22:17;29.10;1.00
5802;DHT22;2927;49.366;8.530;2023-07-22T15:24:43;29.10;1.00
5802;DHT22;2927;49.366;8.530;2023-07-22T15:27:08;29.00;1.00
5802;DHT22;2927;49.366;8.530;2023-07-22T15:29:34;29.10;1.00
5802;DHT22;2927;49.366;8.530;2023-07-22T15:32:00;29.10;1.00
5802;DHT22;2927;49.366;8.530;2023-07-22T15:34:27;29.10;1.00
5802;DHT22;2927;49.366;8.530;2023-07-22T15:36:53;29.30;1.00
5802;DHT22;2927;49.366;8.530;2023-07-22T15:39:18;29.20;1.00
5802;DHT22;2927;49.366;8.530;2023-07-22T15:41:44;29.00;1.00
5802;DHT22;2927;49.366;8.530;2023-07-22T15:44:09;28.80;1.00
5802;DHT22;2927;49.366;8.530;2023-07-22T15:46:35;28.70;1.00
5802;DHT22;2927;49.366;8.530;2023-07-22T15:49:01;28.70;1.00
5802;DHT22;2927;49.366;8.530;2023-07-22T15:51:27;28.80;1.00
5802;DHT22;2927;49.366;8.530;2023-07-22T15:53:52;28.70;1.00
5802;DHT22;2927;49.366;8.530;2023-07-22T15:56:18;28.50;1.00
5802;DHT22;2927;49.366;8.530;2023-07-22T15:58:43;28.40;1.00
5802;DHT22;2927;49.366;8.530;2023-07-22T16:01:09;28.40;1.00
5802;DHT22;2927;49.366;8.530;2023-07-22T16:03:36;28.50;1.00
5802;DHT22;2927;49.366;8.530;2023-07-22T16:06:03;28.60;1.00
5802;DHT22;2927;49.366;8.530;2023-07-22T16:08:28;28.70;1.00
5802;DHT22;2927;49.366;8.530;2023-07-22T16:10:57;28.60;1.00
5802;DHT22;2927;49.366;8.530;2023-07-22T16:13:23;28.70;1.00
5802;DHT22;2927;49.366;8.530;2023-07-22T16:15:49;28.50;1.00
5802;DHT22;2927;49.366;8.530;2023-07-22T16:18:14;28.60;1.00
5802;DHT22;2927;49.366;8.530;2023-07-22T16:20:39;28.40;1.00
5802;DHT22;2927;49.366;8.530;2023-07-22T16:23:05;28.40;1.00
5802;DHT22;2927;49.366;8.530;2023-07-22T16:25:31;28.40;1.00
5802;DHT22;2927;49.366;8.530;2023-07-22T16:27:57;28.50;1.00
5802;DHT22;2927;49.366;8.530;2023-07-22T16:30:22;28.40;1.00
5802;DHT22;2927;49.366;8.530;2023-07-22T16:32:48;28.40;1.00